Ingleside, Texas
Current Conditions -  °F | °C
As of 12:15 PM on Thursday 27 Nov 2014 (Local Time) from KTFP Reporting Station
Clear Clear  
Wind Chill: 70°   Ceiling: Unl
Heat Index: 70°   Visibility: 10mi
Dew Point: 52°   Wind: 9mph
Humidity: 53%   Direction: 100°E
Pressure: 30.43"   Gusts: NA
Location:  27.88°N, 97.21°W
Report Text: KTFP 271815Z AUTO 10008KT 10SM CLR 21/11 A3043 RMK AO2 T02100111
Loading
Personal Weather Stations






























Interactive Weather Map New forecast layout! Learn more

10-Day Weather Forecast

Advertisements
Track Severe Weather on mobile